Time;durP1;ratioP1;P1;durP2;ratioP2;P2;SDS_P1;SDS_P2;PMS_P1;PMS_P2;Temp;Humidity;BMP_temperature;BMP_pressure;BME280_temperature;BME280_humidity;BME280_pressure;Samples;Min_cycle;Max_cycle;Signal;HPM_P1;HPM_P2
2022/05/17 00:01:07;;;;;;;11.23;4.25;;;;;;;15.02;100.00;99159.50;4917471;29;20500;-86
2022/05/17 00:03:32;;;;;;;11.80;4.90;;;;;;;14.96;100.00;99161.19;4918492;29;20109;-86
2022/05/17 00:05:58;;;;;;;17.38;4.80;;;;;;;14.92;100.00;99158.16;4917577;29;20043;-86
2022/05/17 00:08:24;;;;;;;8.13;4.60;;;;;;;14.89;100.00;99163.91;4940287;28;20103;-87
2022/05/17 00:10:50;;;;;;;8.30;4.65;;;;;;;14.83;100.00;99160.28;4914312;29;20062;-87
2022/05/17 00:13:15;;;;;;;11.77;4.28;;;;;;;14.83;100.00;99167.44;4917821;29;20047;-87
2022/05/17 00:15:47;;;;;;;13.48;4.47;;;;;;;14.79;100.00;99163.59;4916312;29;20040;-87
2022/05/17 00:18:14;;;;;;;8.20;4.80;;;;;;;14.72;100.00;99161.03;4916345;29;20032;-87
2022/05/17 00:20:41;;;;;;;10.38;4.35;;;;;;;14.76;100.00;99161.41;4915643;29;20038;-87
2022/05/17 00:23:08;;;;;;;13.07;4.30;;;;;;;14.71;100.00;99160.22;4918395;29;20035;-87
2022/05/17 00:25:35;;;;;;;10.80;4.30;;;;;;;14.73;100.00;99156.53;4918193;29;20043;-89
2022/05/17 00:28:01;;;;;;;12.25;4.43;;;;;;;14.70;100.00;99148.00;4900334;29;20066;-87
2022/05/17 00:30:27;;;;;;;15.27;4.20;;;;;;;14.62;100.00;99150.94;4919598;29;20039;-87
2022/05/17 00:32:52;;;;;;;14.73;5.00;;;;;;;14.57;100.00;99150.78;4918822;29;20032;-86
2022/05/17 00:35:18;;;;;;;15.63;5.07;;;;;;;14.48;100.00;99154.72;4918075;29;20471;-87
2022/05/17 00:37:44;;;;;;;12.05;4.32;;;;;;;14.46;100.00;99146.22;4917048;29;20036;-87
2022/05/17 00:40:11;;;;;;;11.15;4.60;;;;;;;14.39;100.00;99141.81;4899125;29;20060;-85
2022/05/17 00:42:36;;;;;;;12.55;5.07;;;;;;;14.37;100.00;99149.13;4915155;29;20047;-85
2022/05/17 00:45:03;;;;;;;16.35;4.22;;;;;;;14.26;100.00;99149.84;4916841;29;20036;-86
2022/05/17 00:47:35;;;;;;;12.63;4.72;;;;;;;14.24;100.00;99154.53;4917266;29;20038;-86
2022/05/17 00:50:13;;;;;;;12.13;4.57;;;;;;;14.24;100.00;99152.66;4916036;29;20043;-86
2022/05/17 00:52:38;;;;;;;14.55;5.22;;;;;;;14.20;100.00;99145.41;4889222;29;20036;-86
2022/05/17 00:55:09;;;;;;;10.82;4.93;;;;;;;14.16;100.00;99145.03;4917297;29;20028;-85
2022/05/17 00:57:55;;;;;;;13.85;4.95;;;;;;;14.17;100.00;99145.84;4916575;29;20567;-86
2022/05/17 01:00:22;;;;;;;16.52;4.90;;;;;;;14.16;100.00;99141.59;4935272;29;20043;-86
2022/05/17 01:02:53;;;;;;;16.30;5.45;;;;;;;14.18;100.00;99145.63;4915654;29;20525;-87
2022/05/17 01:05:24;;;;;;;14.77;5.55;;;;;;;14.16;100.00;99144.25;4915369;29;20044;-86
2022/05/17 01:07:54;;;;;;;15.80;5.45;;;;;;;14.08;100.00;99151.38;4914570;29;20503;-86
2022/05/17 01:10:21;;;;;;;22.10;6.18;;;;;;;14.11;100.00;99156.22;4916252;29;20036;-87
2022/05/17 01:14:57;;;;;;;18.35;6.13;;;;;;;14.08;100.00;99146.09;4913616;29;20055;-87
2022/05/17 01:15:34;;;;;;;11.38;4.97;;;;;;;14.10;100.00;99149.34;4914710;29;20115;-87
2022/05/17 01:18:01;;;;;;;20.80;5.50;;;;;;;14.13;100.00;99138.34;4916445;29;20032;-87
2022/05/17 01:20:27;;;;;;;25.85;5.85;;;;;;;14.13;100.00;99135.69;4915670;29;20110;-86
2022/05/17 01:22:52;;;;;;;19.50;5.78;;;;;;;14.14;100.00;99132.03;4915582;29;20063;-86
2022/05/17 01:25:18;;;;;;;19.08;6.13;;;;;;;14.13;100.00;99133.06;4915380;29;20036;-87
2022/05/17 01:27:51;;;;;;;15.77;5.82;;;;;;;14.09;100.00;99131.88;4916598;29;20028;-88
2022/05/17 01:30:20;;;;;;;25.88;5.75;;;;;;;14.11;100.00;99140.41;4915569;29;20067;-87
2022/05/17 01:32:45;;;;;;;18.00;6.10;;;;;;;14.02;100.00;99136.41;4916484;29;20040;-88
2022/05/17 01:35:12;;;;;;;20.50;5.35;;;;;;;14.01;100.00;99140.06;4915918;29;20032;-87
2022/05/17 01:37:38;;;;;;;20.30;5.43;;;;;;;13.98;100.00;99135.25;4916676;29;20056;-86
2022/05/17 01:40:05;;;;;;;22.00;5.50;;;;;;;14.01;100.00;99140.06;4914954;29;20092;-87
2022/05/17 01:42:30;;;;;;;23.10;5.68;;;;;;;13.99;100.00;99136.84;4916203;29;20036;-86
2022/05/17 01:44:56;;;;;;;27.48;6.28;;;;;;;13.93;100.00;99133.22;4937392;28;20395;-86
2022/05/17 01:47:22;;;;;;;17.58;5.32;;;;;;;13.93;100.00;99137.69;4914989;29;20063;-86
2022/05/17 01:49:47;;;;;;;22.90;5.30;;;;;;;13.93;100.00;99135.88;4916070;29;20111;-87
2022/05/17 01:52:12;;;;;;;18.60;5.25;;;;;;;13.90;100.00;99138.13;4916256;29;20595;-86
2022/05/17 01:54:38;;;;;;;21.05;5.30;;;;;;;13.92;100.00;99143.97;4915815;29;20376;-85
2022/05/17 01:57:04;;;;;;;14.90;5.15;;;;;;;13.82;100.00;99134.72;4913953;29;20495;-86
2022/05/17 01:59:31;;;;;;;22.67;5.97;;;;;;;13.80;100.00;99139.41;4933395;29;20506;-86
2022/05/17 02:01:57;;;;;;;16.80;5.68;;;;;;;13.80;100.00;99144.69;4937071;29;20059;-87
2022/05/17 02:04:23;;;;;;;18.42;5.25;;;;;;;13.71;100.00;99143.31;4915758;29;20115;-86
2022/05/17 02:06:49;;;;;;;22.83;6.20;;;;;;;13.68;100.00;99135.81;4914495;29;20115;-87
2022/05/17 02:09:15;;;;;;;16.25;5.13;;;;;;;13.70;100.00;99146.97;4910333;29;20032;-86
2022/05/17 02:11:41;;;;;;;20.98;5.78;;;;;;;13.68;100.00;99138.47;4914930;29;20119;-87
2022/05/17 02:14:08;;;;;;;24.25;6.13;;;;;;;13.65;100.00;99138.91;4915864;29;20028;-87
2022/05/17 02:16:39;;;;;;;13.63;5.25;;;;;;;13.60;100.00;99138.72;4914490;29;20399;-87
2022/05/17 02:19:06;;;;;;;20.75;6.45;;;;;;;13.57;100.00;99146.03;4914598;29;20035;-86
2022/05/17 02:21:36;;;;;;;17.83;6.18;;;;;;;13.51;100.00;99135.53;4917308;29;20550;-87
2022/05/17 02:24:03;;;;;;;19.40;6.05;;;;;;;13.53;100.00;99142.19;4914822;29;20036;-86
2022/05/17 02:26:30;;;;;;;20.35;6.32;;;;;;;13.53;100.00;99154.59;4914417;29;20040;-86
2022/05/17 02:28:55;;;;;;;19.60;5.95;;;;;;;13.47;100.00;99147.53;4914370;29;20024;-86
2022/05/17 02:31:21;;;;;;;19.27;5.82;;;;;;;13.43;100.00;99144.50;4914009;29;20047;-86
2022/05/17 02:33:47;;;;;;;17.45;6.00;;;;;;;13.45;100.00;99144.25;4914306;29;20139;-87
2022/05/17 02:36:13;;;;;;;17.52;5.68;;;;;;;13.43;100.00;99145.28;4915440;29;20127;-86
2022/05/17 02:38:40;;;;;;;13.98;6.43;;;;;;;13.39;100.00;99146.69;4915090;29;20522;-86
2022/05/17 02:41:06;;;;;;;17.70;6.53;;;;;;;13.30;100.00;99140.06;4913684;29;20028;-88
2022/05/17 02:43:31;;;;;;;17.25;5.95;;;;;;;13.29;100.00;99139.25;4914701;29;20051;-86
2022/05/17 02:45:57;;;;;;;21.80;7.85;;;;;;;13.31;100.00;99146.13;4915109;29;20035;-88
2022/05/17 02:48:22;;;;;;;24.27;7.40;;;;;;;13.31;100.00;99143.50;4913794;29;20563;-87
2022/05/17 02:50:48;;;;;;;17.95;6.97;;;;;;;13.25;100.00;99143.31;4938854;29;20395;-88
2022/05/17 02:53:14;;;;;;;17.77;6.75;;;;;;;13.22;100.00;99146.38;4913770;29;20047;-87
2022/05/17 02:55:40;;;;;;;21.50;7.95;;;;;;;13.24;100.00;99152.25;4915645;29;20064;-86
2022/05/17 02:58:06;;;;;;;19.02;7.63;;;;;;;13.24;100.00;99146.97;4915195;29;20407;-87
2022/05/17 03:00:32;;;;;;;21.58;8.95;;;;;;;13.17;100.00;99140.94;4915815;29;20040;-87
2022/05/17 03:02:58;;;;;;;24.02;8.80;;;;;;;13.22;100.00;99143.75;4912367;29;20051;-87
2022/05/17 03:05:25;;;;;;;28.17;8.77;;;;;;;13.20;100.00;99145.78;4914169;29;20032;-87
2022/05/17 03:07:51;;;;;;;21.60;8.23;;;;;;;13.16;100.00;99141.13;4913194;29;20479;-87
2022/05/17 03:10:17;;;;;;;22.67;9.07;;;;;;;13.11;100.00;99142.56;4913394;29;20087;-87
2022/05/17 03:12:43;;;;;;;22.17;8.13;;;;;;;13.13;100.00;99135.25;4897779;29;20072;-86
2022/05/17 03:15:12;;;;;;;30.20;9.60;;;;;;;13.12;100.00;99138.91;4914894;29;20494;-86
2022/05/17 03:17:38;;;;;;;18.92;8.05;;;;;;;13.15;100.00;99145.56;4914997;29;20111;-86
2022/05/17 03:20:04;;;;;;;23.55;9.20;;;;;;;13.08;100.00;99142.16;4913694;29;20111;-85
2022/05/17 03:22:30;;;;;;;24.25;9.73;;;;;;;13.02;100.00;99140.38;4913092;29;20078;-85
2022/05/17 03:24:56;;;;;;;34.90;10.07;;;;;;;13.06;100.00;99149.47;4914881;29;20028;-86
2022/05/17 03:27:22;;;;;;;21.05;9.00;;;;;;;13.06;100.00;99145.00;4914665;29;20549;-87
2022/05/17 03:29:47;;;;;;;32.95;10.82;;;;;;;13.04;100.00;99140.97;4913612;29;20537;-87
2022/05/17 03:32:13;;;;;;;32.92;9.50;;;;;;;13.03;100.00;99144.63;4913241;29;20115;-86
2022/05/17 03:34:39;;;;;;;27.95;10.02;;;;;;;12.99;100.00;99150.31;4913657;29;20399;-87
2022/05/17 03:37:05;;;;;;;26.20;9.68;;;;;;;13.00;100.00;99146.66;4940655;29;20039;-87
2022/05/17 03:39:30;;;;;;;28.02;9.27;;;;;;;12.98;100.00;99159.25;4914794;29;20028;-86
2022/05/17 03:41:56;;;;;;;25.98;8.43;;;;;;;12.92;100.00;99157.41;4915064;29;20084;-88
2022/05/17 03:44:21;;;;;;;27.38;8.98;;;;;;;12.97;100.00;99156.78;4914732;29;20036;-87
2022/05/17 03:46:47;;;;;;;20.08;8.68;;;;;;;12.95;100.00;99162.25;4914680;29;20123;-87
2022/05/17 03:49:13;;;;;;;31.30;9.77;;;;;;;13.00;100.00;99159.84;4914682;29;20107;-86
2022/05/17 03:51:39;;;;;;;27.33;10.10;;;;;;;13.00;100.00;99165.09;4914547;29;20032;-86
2022/05/17 03:54:05;;;;;;;35.55;10.60;;;;;;;12.99;100.00;99168.75;4897459;29;20032;-87
2022/05/17 03:56:31;;;;;;;29.60;9.90;;;;;;;13.02;100.00;99164.88;4914615;29;20047;-87
2022/05/17 03:58:56;;;;;;;27.80;10.77;;;;;;;13.04;100.00;99167.31;4914497;29;20024;-87
2022/05/17 04:01:22;;;;;;;30.13;11.75;;;;;;;13.03;100.00;99170.97;4914619;29;20051;-87
2022/05/17 04:03:47;;;;;;;38.13;14.05;;;;;;;13.03;100.00;99169.13;4911452;29;20037;-86
2022/05/17 04:06:13;;;;;;;25.55;13.30;;;;;;;13.07;100.00;99161.63;4912095;29;20475;-87
2022/05/17 04:08:40;;;;;;;40.03;14.40;;;;;;;13.07;100.00;99162.44;4914732;29;20024;-87
2022/05/17 04:11:06;;;;;;;32.47;14.45;;;;;;;13.12;100.00;99169.72;4914527;29;20479;-87
2022/05/17 04:13:32;;;;;;;31.80;13.45;;;;;;;13.17;100.00;99161.19;4914278;29;20064;-87
2022/05/17 04:15:59;;;;;;;32.38;14.50;;;;;;;13.21;100.00;99163.22;4914129;29;20042;-85
2022/05/17 04:18:25;;;;;;;40.67;16.50;;;;;;;13.27;100.00;99174.75;4912815;29;20031;-86
2022/05/17 04:20:56;;;;;;;33.00;16.08;;;;;;;13.35;100.00;99160.50;4915756;29;20063;-87
2022/05/17 04:23:21;;;;;;;40.22;16.67;;;;;;;13.40;100.00;99158.06;4917701;29;20553;-86
2022/05/17 04:25:47;;;;;;;37.60;17.40;;;;;;;13.56;100.00;99165.53;4917762;29;20044;-88
2022/05/17 04:28:13;;;;;;;41.17;17.88;;;;;;;13.68;100.00;99172.75;4917947;29;20471;-87
2022/05/17 04:30:38;;;;;;;43.25;17.13;;;;;;;13.68;100.00;99162.19;4917899;29;20036;-87
2022/05/17 04:33:05;;;;;;;41.15;17.80;;;;;;;13.74;100.00;99171.09;4917947;29;20028;-86
2022/05/17 04:35:31;;;;;;;42.63;17.80;;;;;;;13.83;100.00;99181.19;4938632;28;20092;-87
2022/05/17 04:37:57;;;;;;;48.28;18.30;;;;;;;13.96;100.00;99185.56;4917727;29;20043;-88
2022/05/17 04:40:22;;;;;;;53.13;19.05;;;;;;;13.99;100.00;99181.72;4917511;29;20486;-87
2022/05/17 04:42:49;;;;;;;45.97;18.50;;;;;;;14.01;100.00;99174.38;4917548;29;20375;-87
2022/05/17 04:45:17;;;;;;;50.33;19.00;;;;;;;14.07;100.00;99180.66;4917663;29;20118;-87
2022/05/17 04:47:43;;;;;;;43.95;18.08;;;;;;;14.19;100.00;99184.19;4914474;29;20039;-87
2022/05/17 04:50:11;;;;;;;41.17;17.75;;;;;;;14.22;100.00;99182.97;4917751;29;20063;-87
2022/05/17 04:52:37;;;;;;;40.22;18.27;;;;;;;14.43;100.00;99187.88;4917608;29;20036;-87
2022/05/17 04:55:04;;;;;;;42.75;17.13;;;;;;;14.42;100.00;99177.50;4915776;29;20086;-87
2022/05/17 04:57:30;;;;;;;38.35;17.17;;;;;;;14.44;100.00;99180.75;4915094;29;20067;-86
2022/05/17 04:59:57;;;;;;;46.65;17.33;;;;;;;14.45;100.00;99182.38;4915112;29;20052;-86
2022/05/17 05:02:25;;;;;;;38.67;17.95;;;;;;;14.36;100.00;99183.66;4915077;29;20491;-86
2022/05/17 05:04:50;;;;;;;33.05;15.20;;;;;;;14.61;100.00;99182.84;4916988;29;20107;-87
2022/05/17 05:07:16;;;;;;;32.03;16.10;;;;;;;14.76;100.00;99177.25;4917286;29;20040;-86
2022/05/17 05:09:42;;;;;;;50.63;17.75;;;;;;;14.73;100.00;99180.31;4916799;29;20032;-79
2022/05/17 05:12:08;;;;;;;45.00;17.00;;;;;;;14.61;100.00;99172.28;4917119;29;20059;-78
2022/05/17 05:14:34;;;;;;;36.50;15.18;;;;;;;14.66;100.00;99178.53;4915732;29;20471;-79
2022/05/17 05:16:59;;;;;;;31.40;15.15;;;;;;;14.78;100.00;99180.50;4916808;29;20121;-78
2022/05/17 05:19:25;;;;;;;37.45;15.10;;;;;;;14.76;100.00;99177.25;4916752;29;20368;-78
2022/05/17 05:21:50;;;;;;;35.72;14.40;;;;;;;14.82;100.00;99173.75;4916609;29;21731;-79
2022/05/17 05:24:16;;;;;;;35.85;13.88;;;;;;;15.01;100.00;99179.81;4916915;29;20410;-79
2022/05/17 05:26:41;;;;;;;34.97;14.18;;;;;;;15.05;100.00;99180.19;4916987;29;20028;-77
2022/05/17 05:29:07;;;;;;;41.45;14.45;;;;;;;15.06;100.00;99181.81;4916988;29;20032;-78
2022/05/17 05:31:33;;;;;;;38.47;13.98;;;;;;;15.13;100.00;99182.53;4915979;29;20044;-81
2022/05/17 05:34:00;;;;;;;30.33;13.70;;;;;;;15.08;100.00;99179.75;4915091;29;20111;-79
2022/05/17 05:36:28;;;;;;;38.28;14.45;;;;;;;15.02;100.00;99176.16;4916620;29;20039;-79
2022/05/17 05:38:54;;;;;;;29.80;12.15;;;;;;;15.10;100.00;99178.53;4915519;29;20040;-78
2022/05/17 05:41:21;;;;;;;29.83;12.75;;;;;;;15.19;100.00;99181.69;4915242;29;20040;-79
2022/05/17 05:43:46;;;;;;;26.35;12.40;;;;;;;15.18;100.00;99180.06;4915988;29;20047;-79
2022/05/17 05:46:12;;;;;;;35.30;12.73;;;;;;;15.47;100.00;99192.75;4915415;29;20028;-78
2022/05/17 05:48:38;;;;;;;30.00;12.15;;;;;;;15.41;100.00;99187.28;4916349;29;20043;-78
2022/05/17 05:51:04;;;;;;;26.00;11.18;;;;;;;15.18;100.00;99193.28;4916266;29;20066;-79
2022/05/17 05:53:30;;;;;;;26.38;13.40;;;;;;;15.47;100.00;99203.31;4914134;29;20056;-78
2022/05/17 05:56:02;;;;;;;32.95;12.77;;;;;;;15.56;100.00;99208.09;4942285;28;20119;-78
2022/05/17 05:58:32;;;;;;;27.42;12.27;;;;;;;15.67;100.00;99213.66;4915340;29;20036;-79
2022/05/17 06:00:58;;;;;;;23.55;9.63;;;;;;;15.72;100.00;99205.84;4912630;29;20529;-80
2022/05/17 06:03:25;;;;;;;28.85;9.18;;;;;;;15.63;100.00;99196.59;4915873;29;20036;-78
2022/05/17 06:05:50;;;;;;;21.38;8.02;;;;;;;15.65;100.00;99205.13;4914218;29;20561;-79
2022/05/17 06:08:17;;;;;;;21.00;8.02;;;;;;;15.64;100.00;99198.22;4914847;29;20036;-79
2022/05/17 06:10:43;;;;;;;26.30;9.77;;;;;;;15.78;100.00;99199.66;4914898;29;20032;-78
2022/05/17 06:13:10;;;;;;;21.75;8.35;;;;;;;15.87;100.00;99197.50;4915796;29;20083;-79
2022/05/17 06:15:37;;;;;;;32.70;9.98;;;;;;;15.90;100.00;99197.09;4915126;29;20119;-79
2022/05/17 06:18:04;;;;;;;25.15;8.35;;;;;;;16.02;100.00;99205.06;4914347;29;20028;-78
2022/05/17 06:20:30;;;;;;;26.73;8.80;;;;;;;15.90;100.00;99198.91;4915651;29;20058;-79
2022/05/17 06:22:56;;;;;;;21.60;8.02;;;;;;;16.09;100.00;99200.47;4915279;29;20036;-79
2022/05/17 06:25:22;;;;;;;22.00;7.80;;;;;;;16.14;100.00;99202.44;4915637;29;20031;-79
2022/05/17 06:27:48;;;;;;;27.65;7.88;;;;;;;16.30;100.00;99200.97;4898258;29;20040;-78
2022/05/17 06:30:14;;;;;;;27.60;8.25;;;;;;;16.18;100.00;99210.75;4913960;29;20059;-79
2022/05/17 06:32:40;;;;;;;24.77;8.00;;;;;;;16.37;100.00;99206.16;4937927;28;20036;-79
2022/05/17 06:35:07;;;;;;;19.73;7.15;;;;;;;16.41;100.00;99208.13;4916270;29;20032;-79
2022/05/17 06:37:33;;;;;;;23.08;7.28;;;;;;;16.48;100.00;99204.56;4913829;29;20037;-80
2022/05/17 06:39:59;;;;;;;21.25;7.93;;;;;;;16.56;100.00;99214.81;4915231;29;20040;-80
2022/05/17 06:42:24;;;;;;;27.95;7.72;;;;;;;16.44;100.00;99216.66;4913335;29;20043;-79
2022/05/17 06:44:50;;;;;;;22.38;7.55;;;;;;;16.41;100.00;99225.88;4915443;29;20435;-79
2022/05/17 06:47:16;;;;;;;21.75;6.78;;;;;;;16.41;100.00;99229.31;4922516;29;20079;-77
2022/05/17 06:49:42;;;;;;;21.17;7.30;;;;;;;16.26;100.00;99228.94;4915291;29;20131;-78
2022/05/17 06:52:08;;;;;;;25.77;6.65;;;;;;;16.39;100.00;99236.69;4911341;29;20051;-79
2022/05/17 06:54:35;;;;;;;26.63;7.78;;;;;;;16.33;100.00;99231.50;4912476;29;20144;-80
2022/05/17 06:57:06;;;;;;;20.25;6.70;;;;;;;16.50;100.00;99221.03;4913842;29;20044;-80
2022/05/17 06:59:34;;;;;;;23.48;6.85;;;;;;;16.73;100.00;99235.34;4910118;29;20090;-80
2022/05/17 07:02:00;;;;;;;24.92;7.20;;;;;;;16.89;100.00;99229.31;4912300;29;20406;-79
2022/05/17 07:04:27;;;;;;;24.13;7.28;;;;;;;17.02;100.00;99233.66;4912238;29;20083;-79
2022/05/17 07:06:58;;;;;;;23.25;7.00;;;;;;;17.18;100.00;99224.16;4914745;29;20055;-79
2022/05/17 07:09:25;;;;;;;21.77;6.97;;;;;;;17.32;100.00;99221.25;4914632;29;20035;-79
2022/05/17 07:14:38;;;;;;;20.27;6.68;;;;;;;17.16;100.00;99215.63;4912558;29;20497;-79
2022/05/17 07:17:19;;;;;;;20.30;6.70;;;;;;;17.22;100.00;99227.94;4913764;29;20884;-78
2022/05/17 07:19:46;;;;;;;19.08;6.35;;;;;;;17.22;100.00;99216.56;4914577;29;20042;-78
2022/05/17 07:22:12;;;;;;;21.27;6.65;;;;;;;17.19;100.00;99233.72;4913941;29;20384;-77
2022/05/17 07:24:38;;;;;;;24.65;6.93;;;;;;;17.10;100.00;99229.84;4913980;29;20419;-78
2022/05/17 07:27:05;;;;;;;23.02;6.47;;;;;;;17.11;100.00;99231.44;4914130;29;20059;-77
2022/05/17 07:29:32;;;;;;;23.70;6.82;;;;;;;17.16;100.00;99217.47;4914589;29;20036;-78
2022/05/17 07:31:58;;;;;;;23.98;6.03;;;;;;;17.18;100.00;99229.47;4914570;29;20483;-78
2022/05/17 07:34:24;;;;;;;21.13;5.80;;;;;;;17.21;100.00;99226.34;4912037;29;20083;-78
2022/05/17 07:36:49;;;;;;;21.33;6.53;;;;;;;17.28;100.00;99231.53;4914222;29;20068;-78
2022/05/17 07:39:17;;;;;;;21.40;6.13;;;;;;;17.17;100.00;99230.50;4914617;29;20098;-78
2022/05/17 07:41:43;;;;;;;23.55;5.75;;;;;;;17.03;100.00;99234.44;4914521;29;20459;-79
2022/05/17 07:44:09;;;;;;;21.52;5.70;;;;;;;17.37;100.00;99239.94;4914863;29;20039;-79
2022/05/17 07:46:34;;;;;;;23.02;6.75;;;;;;;17.43;100.00;99238.97;4913977;29;20089;-79
2022/05/17 07:49:01;;;;;;;20.25;6.25;;;;;;;17.70;100.00;99244.56;4914438;29;20039;-79
2022/05/17 07:51:27;;;;;;;24.17;6.03;;;;;;;17.74;100.00;99234.28;4912723;29;20159;-79
2022/05/17 07:53:53;;;;;;;16.60;6.03;;;;;;;18.00;100.00;99240.03;4912867;29;20032;-78
2022/05/17 07:56:19;;;;;;;24.45;6.65;;;;;;;17.88;100.00;99241.94;4937482;29;20040;-79
2022/05/17 07:58:45;;;;;;;20.92;5.05;;;;;;;18.06;100.00;99247.06;4918298;29;20040;-78
2022/05/17 08:01:10;;;;;;;22.15;5.82;;;;;;;18.02;100.00;99239.84;4918237;29;20032;-79
2022/05/17 08:03:36;;;;;;;17.55;5.30;;;;;;;18.33;100.00;99243.81;4918498;29;20059;-79
2022/05/17 08:06:01;;;;;;;20.73;5.40;;;;;;;18.53;100.00;99243.34;4918555;29;20040;-78
2022/05/17 08:08:27;;;;;;;21.38;5.32;;;;;;;18.48;100.00;99243.25;4917390;29;20044;-78
2022/05/17 08:10:54;;;;;;;23.85;5.55;;;;;;;17.95;100.00;99247.94;4917381;29;20379;-79
2022/05/17 08:13:21;;;;;;;15.70;4.88;;;;;;;18.21;100.00;99243.09;4917823;29;20047;-79
2022/05/17 08:15:48;;;;;;;19.05;5.78;;;;;;;17.93;100.00;99236.75;4915120;29;20168;-80
2022/05/17 08:18:16;;;;;;;17.77;4.90;;;;;;;18.23;100.00;99236.50;4916901;29;20474;-78
2022/05/17 08:20:42;;;;;;;21.05;5.32;;;;;;;18.08;100.00;99241.53;4917887;29;20035;-79
2022/05/17 08:23:07;;;;;;;21.05;5.85;;;;;;;17.78;100.00;99230.09;4916403;29;20466;-79
2022/05/17 08:28:17;;;;;;;23.08;4.68;;;;;;;18.37;100.00;99236.97;4917074;29;20040;-78
2022/05/17 08:30:44;;;;;;;27.88;5.15;;;;;;;18.63;100.00;99242.69;4917713;29;20031;-78
2022/05/17 08:33:14;;;;;;;20.27;4.93;;;;;;;18.72;100.00;99237.75;4917560;29;20038;-78
2022/05/17 08:36:19;;;;;;;15.07;4.47;;;;;;;18.81;100.00;99230.19;4917585;29;20390;-79
2022/05/17 08:38:45;;;;;;;;;;;;;;;18.81;100.00;99235.50;4881245;29;20033;-78
2022/05/17 08:41:28;;;;;;;19.80;4.78;;;;;;;18.96;100.00;99227.75;4896371;29;19919;-79
2022/05/17 08:44:02;;;;;;;17.58;4.30;;;;;;;19.03;100.00;99221.47;4905871;29;20047;-77
2022/05/17 08:46:48;;;;;;;;;;;;;;;19.15;100.00;99222.16;4915574;29;20032;-78
2022/05/17 08:49:26;;;;;;;18.42;5.40;;;;;;;19.25;100.00;99227.59;4916439;29;19915;-83
2022/05/17 08:52:07;;;;;;;13.95;3.80;;;;;;;19.21;100.00;99217.72;4915881;29;20036;-79
2022/05/17 08:54:41;;;;;;;21.92;4.60;;;;;;;19.35;100.00;99218.94;4914896;29;20119;-79
2022/05/17 08:57:41;;;;;;;14.98;4.28;;;;;;;19.50;100.00;99217.50;4917118;29;20032;-78
2022/05/17 09:00:22;;;;;;;21.63;4.85;;;;;;;19.45;100.00;99212.13;4916678;29;20517;-78
2022/05/17 09:02:57;;;;;;;15.38;4.10;;;;;;;19.66;100.00;99218.50;4916536;29;20055;-79
2022/05/17 09:05:36;;;;;;;16.15;4.40;;;;;;;19.79;100.00;99220.75;4916287;29;20406;-79
2022/05/17 09:08:18;;;;;;;17.25;4.90;;;;;;;19.88;100.00;99218.44;4916211;29;20038;-79
2022/05/17 09:10:50;;;;;;;14.85;4.18;;;;;;;19.91;100.00;99220.63;4916282;29;20028;-79
2022/05/17 09:13:33;;;;;;;13.45;3.70;;;;;;;20.16;100.00;99211.28;4915507;29;20044;-78
2022/05/17 09:16:00;;;;;;;20.85;4.85;;;;;;;20.15;100.00;99220.34;4916391;29;20136;-79
2022/05/17 09:18:29;;;;;;;14.23;4.63;;;;;;;20.73;100.00;99213.53;4915239;29;20505;-79
2022/05/17 09:20:55;;;;;;;15.30;4.15;;;;;;;20.76;100.00;99213.03;4915494;29;20498;-78
2022/05/17 09:23:20;;;;;;;16.00;4.75;;;;;;;20.83;100.00;99218.94;4915969;29;20036;-79
2022/05/17 09:25:58;;;;;;;16.48;4.18;;;;;;;20.89;100.00;99217.13;4916061;29;20119;-78
2022/05/17 09:28:26;;;;;;;12.15;4.40;;;;;;;20.92;100.00;99204.06;4915943;29;20071;-79
2022/05/17 09:31:15;;;;;;;18.52;4.25;;;;;;;21.11;100.00;99208.97;4915968;29;20040;-78
2022/05/17 09:33:42;;;;;;;22.35;5.20;;;;;;;20.88;100.00;99207.50;4915693;29;20028;-78
2022/05/17 09:36:17;;;;;;;12.65;4.15;;;;;;;21.13;100.00;99209.50;4915855;29;20063;-79
2022/05/17 09:39:02;;;;;;;14.85;4.10;;;;;;;21.23;100.00;99206.91;4915849;29;20123;-79
2022/05/17 09:41:36;;;;;;;20.30;4.82;;;;;;;21.19;100.00;99207.66;4915990;29;20140;-79
2022/05/17 09:44:21;;;;;;;;;;;;;;;21.40;100.00;99203.19;4916312;29;20048;-79
2022/05/17 09:46:49;;;;;;;20.92;4.53;;;;;;;21.41;100.00;99202.13;4915220;29;20325;-79
2022/05/17 09:54:53;;;;;;;13.63;3.78;;;;;;;21.55;100.00;99203.25;4914713;29;20463;-78
2022/05/17 09:57:30;;;;;;;16.65;5.28;;;;;;;21.48;100.00;99193.88;4914688;29;20501;-79
2022/05/17 10:00:08;;;;;;;19.55;5.10;;;;;;;21.68;100.00;99195.81;4915943;29;20047;-79
2022/05/17 10:02:42;;;;;;;15.00;5.28;;;;;;;21.59;100.00;99208.06;4915698;29;20052;-78
2022/05/17 10:05:20;;;;;;;18.23;5.75;;;;;;;21.31;100.00;99197.56;4915783;29;20411;-78
2022/05/17 10:08:24;;;;;;;25.35;5.28;;;;;;;21.50;100.00;99189.88;4915166;29;20455;-79
2022/05/17 10:11:13;;;;;;;;;;;;;;;21.63;100.00;99185.91;4916118;29;20410;-78
2022/05/17 10:13:48;;;;;;;17.00;4.80;;;;;;;21.87;100.00;99181.97;4915018;29;19919;-79
2022/05/17 10:16:22;;;;;;;9.73;4.32;;;;;;;22.21;100.00;99189.47;4939242;28;20040;-78
2022/05/17 10:18:59;;;;;;;13.52;4.60;;;;;;;22.14;100.00;99176.38;4913735;29;20420;-78
2022/05/17 10:21:42;;;;;;;10.82;4.53;;;;;;;22.18;100.00;99177.41;4942710;29;20099;-79
2022/05/17 10:24:43;;;;;;;14.48;4.45;;;;;;;22.68;100.00;99172.28;4915453;29;20044;-78
2022/05/17 10:27:15;;;;;;;12.95;3.92;;;;;;;22.90;100.00;99165.00;4915248;29;20067;-79
2022/05/17 10:29:48;;;;;;;15.68;4.38;;;;;;;23.10;100.00;99151.53;4915180;29;20060;-78
2022/05/17 10:32:19;;;;;;;14.68;4.65;;;;;;;23.16;99.49;99151.50;4915130;29;20028;-79
2022/05/17 10:35:06;;;;;;;13.80;4.15;;;;;;;23.54;99.21;99144.59;4914039;29;20035;-79
2022/05/17 10:37:57;;;;;;;18.52;4.32;;;;;;;23.91;97.96;99150.53;4914593;29;20123;-78
2022/05/17 10:40:32;;;;;;;13.75;4.18;;;;;;;24.31;94.81;99142.41;4913471;29;20412;-78
2022/05/17 10:42:57;;;;;;;18.35;4.82;;;;;;;24.22;94.55;99136.06;4914425;29;20036;-79
2022/05/17 10:45:32;;;;;;;11.02;4.65;;;;;;;24.23;94.11;99140.34;4913234;29;20104;-79
2022/05/17 10:48:28;;;;;;;16.90;4.82;;;;;;;24.05;93.48;99134.63;4913031;29;20036;-79
2022/05/17 10:51:12;;;;;;;14.82;4.72;;;;;;;23.92;92.14;99127.19;4912601;29;20036;-79
2022/05/17 10:53:54;;;;;;;14.30;4.85;;;;;;;23.75;92.55;99125.72;4914881;29;20087;-79
2022/05/17 10:56:49;;;;;;;17.60;5.22;;;;;;;23.24;92.97;99126.81;4914515;29;20156;-79
2022/05/17 10:59:25;;;;;;;14.98;4.93;;;;;;;23.32;95.96;99117.44;4914091;29;20034;-79
2022/05/17 11:02:05;;;;;;;12.13;4.40;;;;;;;23.00;93.61;99121.34;4913066;29;20048;-81
2022/05/17 11:05:02;;;;;;;12.40;5.00;;;;;;;23.15;94.24;99112.44;4914156;29;20046;-80
2022/05/17 11:07:40;;;;;;;11.98;4.93;;;;;;;23.28;94.02;99111.03;4914403;29;20043;-81
2022/05/17 11:10:19;;;;;;;14.13;4.80;;;;;;;23.13;94.46;99115.38;4914268;29;20123;-79
2022/05/17 11:12:50;;;;;;;13.77;5.38;;;;;;;23.38;95.52;99113.63;4900123;29;20056;-78
2022/05/17 11:15:26;;;;;;;17.88;5.20;;;;;;;23.46;94.36;99102.34;4914298;29;20109;-78
2022/05/17 11:17:56;;;;;;;19.75;5.78;;;;;;;23.47;94.30;99100.47;4913315;29;20483;-79
2022/05/17 11:20:38;;;;;;;15.05;5.07;;;;;;;23.56;95.06;99100.66;4912382;29;20044;-78
2022/05/17 11:23:24;;;;;;;11.32;5.32;;;;;;;23.84;94.17;99099.09;4914196;29;20033;-78
2022/05/17 11:25:49;;;;;;;12.30;5.35;;;;;;;24.04;92.90;99090.13;4935462;29;20028;-78
2022/05/17 11:28:44;;;;;;;14.98;5.60;;;;;;;24.06;92.18;99093.31;4914101;29;20020;-78
2022/05/17 11:31:18;;;;;;;13.77;5.20;;;;;;;23.80;91.52;99090.84;4896927;29;20102;-78
2022/05/17 11:33:44;;;;;;;11.73;5.25;;;;;;;23.65;91.94;99088.28;4905935;29;20036;-80
2022/05/17 11:36:12;;;;;;;12.07;5.35;;;;;;;23.58;91.83;99090.47;4914699;29;20044;-80
2022/05/17 11:38:46;;;;;;;12.10;5.90;;;;;;;23.70;92.27;99087.44;4897012;29;20028;-80